createdAt,value
2022-08-10T00:00:26.664Z,82.90
2022-08-10T00:01:26.749Z,82.90
2022-08-10T00:02:26.751Z,82.76
2022-08-10T00:03:27.661Z,82.76
2022-08-10T00:04:26.621Z,82.97
2022-08-10T00:05:26.637Z,82.60
2022-08-10T00:06:26.609Z,82.90
2022-08-10T00:07:26.611Z,82.60
2022-08-10T00:08:26.582Z,83.51
2022-08-10T00:09:27.381Z,83.31
2022-08-10T00:10:26.558Z,83.54
2022-08-10T00:11:26.547Z,84.05
2022-08-10T00:12:54.488Z,84.65
2022-08-10T00:13:27.546Z,84.25
2022-08-10T00:14:26.525Z,84.85
2022-08-10T00:15:52.816Z,84.75
2022-08-10T00:16:27.490Z,84.45
2022-08-10T00:17:27.382Z,84.65
2022-08-10T00:18:31.843Z,84.35
2022-08-10T00:19:27.473Z,84.95
2022-08-10T00:20:27.448Z,84.75
2022-08-10T00:21:27.148Z,84.95
2022-08-10T00:22:26.630Z,84.65
2022-08-10T00:23:26.427Z,84.95
2022-08-10T00:24:26.432Z,84.55
2022-08-10T00:25:26.397Z,84.95
2022-08-10T00:26:26.392Z,84.65
2022-08-10T00:28:01.426Z,84.65
2022-08-10T00:28:27.375Z,84.35
2022-08-10T00:29:26.371Z,84.75
2022-08-10T00:30:26.372Z,84.55
2022-08-10T00:31:26.330Z,84.95
2022-08-10T00:32:26.363Z,85.16
2022-08-10T00:33:26.308Z,85.16
2022-08-10T00:34:26.322Z,85.60
2022-08-10T00:35:26.282Z,85.90
2022-08-10T00:36:26.281Z,85.60
2022-08-10T00:37:27.265Z,86.00
2022-08-10T00:38:26.256Z,86.30
2022-08-10T00:39:26.363Z,86.51
2022-08-10T00:40:37.316Z,86.61
2022-08-10T00:41:27.214Z,86.61
2022-08-10T00:42:28.895Z,86.55
2022-08-10T00:43:26.196Z,86.85
2022-08-10T00:44:26.198Z,86.85
2022-08-10T00:45:26.181Z,87.25
2022-08-10T00:46:26.190Z,87.15
2022-08-10T00:47:36.910Z,86.95
2022-08-10T00:48:28.106Z,87.55
2022-08-10T00:49:26.138Z,86.85
2022-08-10T00:50:26.121Z,87.55
2022-08-10T00:51:40.515Z,87.15
2022-08-10T00:52:27.208Z,86.85
2022-08-10T00:53:26.239Z,87.65
2022-08-10T00:54:26.075Z,87.25
2022-08-10T00:55:26.093Z,86.95
2022-08-10T00:57:12.278Z,86.95
2022-08-10T00:57:33.885Z,86.75
2022-08-10T00:58:26.053Z,87.25
2022-08-10T00:59:26.028Z,87.35
2022-08-10T01:00:26.011Z,87.25
2022-08-10T01:02:09.663Z,87.65
2022-08-10T01:02:27.115Z,87.35
2022-08-10T01:04:57.285Z,86.95
2022-08-10T01:04:58.232Z,87.15
2022-08-10T01:05:26.958Z,87.65
2022-08-10T01:06:25.947Z,87.45
2022-08-10T01:07:25.926Z,86.95
2022-08-10T01:08:25.949Z,87.25
2022-08-10T01:09:25.907Z,87.25
2022-08-10T01:10:25.916Z,87.40
2022-08-10T01:12:37.283Z,87.49
2022-08-10T01:12:38.516Z,87.49
2022-08-10T01:13:26.881Z,87.90
2022-08-10T01:14:25.872Z,87.70
2022-08-10T01:15:25.862Z,87.55
2022-08-10T01:16:25.844Z,87.35
2022-08-10T01:17:50.815Z,87.35
2022-08-10T01:18:26.835Z,86.85
2022-08-10T01:19:25.800Z,87.25
2022-08-10T01:20:30.253Z,87.05
2022-08-10T01:21:25.803Z,87.80
2022-08-10T01:22:25.769Z,88.10
2022-08-10T01:23:25.759Z,88.00
2022-08-10T01:24:25.765Z,88.20
2022-08-10T01:25:25.739Z,88.50
2022-08-10T01:26:30.815Z,88.70
2022-08-10T01:27:27.144Z,88.20
2022-08-10T01:28:25.715Z,88.30
2022-08-10T01:29:25.695Z,87.80
2022-08-10T01:30:25.688Z,88.20
2022-08-10T01:31:25.669Z,88.00
2022-08-10T01:32:25.677Z,88.10
2022-08-10T01:33:31.848Z,87.80
2022-08-10T01:34:26.638Z,88.20
2022-08-10T01:35:25.692Z,87.60
2022-08-10T01:36:32.003Z,87.80
2022-08-10T01:37:26.610Z,88.00
2022-08-10T01:38:25.600Z,88.10
2022-08-10T01:39:25.634Z,87.90
2022-08-10T01:40:25.633Z,88.20
2022-08-10T01:41:25.582Z,88.00
2022-08-10T01:42:25.562Z,88.54
2022-08-10T01:43:25.559Z,88.30
2022-08-10T01:44:25.529Z,89.45
2022-08-10T01:45:25.528Z,89.05
2022-08-10T01:46:25.551Z,89.15
2022-08-10T01:47:25.505Z,88.54
2022-08-10T01:48:26.399Z,88.60
2022-08-10T01:49:25.480Z,88.70
2022-08-10T01:50:25.494Z,89.01
2022-08-10T01:51:25.450Z,88.30
2022-08-10T01:52:25.460Z,88.40
2022-08-10T01:53:25.448Z,88.10
2022-08-10T01:54:25.411Z,88.70
2022-08-10T01:55:26.404Z,88.54
2022-08-10T01:56:25.402Z,88.60
2022-08-10T01:57:25.392Z,88.45
2022-08-10T01:58:25.900Z,88.24
2022-08-10T01:59:25.375Z,89.86
2022-08-10T02:00:25.350Z,89.35
2022-08-10T02:01:26.439Z,89.55
2022-08-10T02:02:25.339Z,89.45
2022-08-10T02:03:25.340Z,89.65
2022-08-10T02:04:25.312Z,89.35
2022-08-10T02:05:25.296Z,89.70
2022-08-10T02:06:25.288Z,89.59
2022-08-10T02:07:25.272Z,89.90
2022-08-10T02:08:25.277Z,89.35
2022-08-10T02:09:25.295Z,89.90
2022-08-10T02:10:25.243Z,89.86
2022-08-10T02:11:25.240Z,90.30
2022-08-10T02:12:25.213Z,90.10
2022-08-10T02:13:25.226Z,90.41
2022-08-10T02:14:25.228Z,89.79
2022-08-10T02:15:26.198Z,90.56
2022-08-10T02:16:25.176Z,90.30
2022-08-10T02:18:00.082Z,90.10
2022-08-10T02:18:26.160Z,89.74
2022-08-10T02:19:25.171Z,90.45
2022-08-10T02:20:25.148Z,91.35
2022-08-10T02:21:25.144Z,90.75
2022-08-10T02:22:38.296Z,90.85
2022-08-10T02:23:26.103Z,91.25
2022-08-10T02:24:25.099Z,91.30
2022-08-10T02:25:40.006Z,91.50
2022-08-10T02:26:26.086Z,91.50
2022-08-10T02:27:26.073Z,91.50
2022-08-10T02:28:27.383Z,91.80
2022-08-10T02:29:26.033Z,92.00
2022-08-10T02:30:25.025Z,92.21
2022-08-10T02:31:25.006Z,91.80
2022-08-10T02:32:52.860Z,92.10
2022-08-10T02:33:32.901Z,91.80
2022-08-10T02:34:24.983Z,92.10
2022-08-10T02:35:25.992Z,91.90
2022-08-10T02:36:24.975Z,92.41
2022-08-10T02:37:24.943Z,92.35
2022-08-10T02:38:59.831Z,92.41
2022-08-10T02:39:27.031Z,92.61
2022-08-10T02:45:12.824Z,93.26
2022-08-10T02:45:14.588Z,92.61
2022-08-10T02:45:21.963Z,93.05
2022-08-10T02:45:22.799Z,93.05
2022-08-10T02:45:25.602Z,92.96
2022-08-10T02:45:30.890Z,92.85
2022-08-10T02:46:26.355Z,92.65
2022-08-10T02:47:24.852Z,93.05
2022-08-10T02:48:24.822Z,93.05
2022-08-10T02:49:25.408Z,92.76
2022-08-10T02:50:24.822Z,92.85
2022-08-10T02:52:06.465Z,93.12
2022-08-10T02:52:25.794Z,93.26
2022-08-10T02:53:54.514Z,92.65
2022-08-10T02:54:25.757Z,92.55
2022-08-10T02:55:27.164Z,92.55
2022-08-10T02:56:25.737Z,92.81
2022-08-10T02:57:24.733Z,92.30
2022-08-10T02:58:24.721Z,92.76
2022-08-10T02:59:24.725Z,92.96
2022-08-10T03:00:24.691Z,92.96
2022-08-10T03:01:24.731Z,92.96
2022-08-10T03:02:24.668Z,92.96
2022-08-10T03:03:24.679Z,93.16
2022-08-10T03:04:55.856Z,93.51
2022-08-10T03:05:25.635Z,93.51
2022-08-10T03:06:24.641Z,93.30
2022-08-10T03:07:43.766Z,93.30
2022-08-10T03:08:25.604Z,93.46
2022-08-10T03:09:24.601Z,93.51
2022-08-10T03:10:24.595Z,93.60
2022-08-10T03:12:36.289Z,93.60
2022-08-10T03:12:36.895Z,93.51
2022-08-10T03:13:25.557Z,93.60
2022-08-10T03:14:24.554Z,93.91
2022-08-10T03:15:24.528Z,93.60
2022-08-10T03:16:24.517Z,93.91
2022-08-10T03:17:25.502Z,94.01
2022-08-10T03:18:24.513Z,94.21
2022-08-10T03:20:35.415Z,94.51
2022-08-10T03:20:37.925Z,94.82
2022-08-10T03:21:26.410Z,94.21
2022-08-10T03:22:24.459Z,95.12
2022-08-10T03:23:24.457Z,94.96
2022-08-10T03:24:30.121Z,94.56
2022-08-10T03:25:25.440Z,94.62
2022-08-10T03:26:24.424Z,94.86
2022-08-10T03:27:24.399Z,95.47
2022-08-10T03:28:24.402Z,94.66
2022-08-10T03:29:24.410Z,94.86
2022-08-10T03:30:29.659Z,94.66
2022-08-10T03:31:25.366Z,94.46
2022-08-10T03:32:24.369Z,94.56
2022-08-10T03:33:24.350Z,94.96
2022-08-10T03:34:33.636Z,94.51
2022-08-10T03:35:25.305Z,95.37
2022-08-10T03:36:42.401Z,94.56
2022-08-10T03:37:25.300Z,95.17
2022-08-10T03:38:24.287Z,95.37
2022-08-10T03:39:24.328Z,95.17
2022-08-10T03:40:24.257Z,95.07
2022-08-10T03:41:25.243Z,95.27
2022-08-10T03:42:24.263Z,95.37
2022-08-10T03:43:24.252Z,95.57
2022-08-10T03:44:24.217Z,95.37
2022-08-10T03:45:24.209Z,95.47
2022-08-10T03:46:24.188Z,95.17
2022-08-10T03:47:24.177Z,95.31
2022-08-10T03:48:24.206Z,95.67
2022-08-10T03:49:24.156Z,95.37
2022-08-10T03:50:45.332Z,95.57
2022-08-10T03:51:25.134Z,95.67
2022-08-10T03:52:24.114Z,94.76
2022-08-10T03:53:24.299Z,94.86
2022-08-10T03:54:25.117Z,94.86
2022-08-10T03:56:26.868Z,94.86
2022-08-10T03:56:26.927Z,94.66
2022-08-10T03:57:25.061Z,94.66
2022-08-10T03:58:24.051Z,94.36
2022-08-10T03:59:24.045Z,94.36
2022-08-10T04:00:24.052Z,94.86
2022-08-10T04:02:46.908Z,94.36
2022-08-10T04:02:47.142Z,94.66
2022-08-10T04:03:25.014Z,94.76
2022-08-10T04:04:25.451Z,94.56
2022-08-10T04:05:23.984Z,94.66
2022-08-10T04:06:24.970Z,95.07
2022-08-10T04:07:23.969Z,94.96
2022-08-10T04:08:23.950Z,95.47
2022-08-10T04:09:23.918Z,95.11
2022-08-10T04:10:23.936Z,95.62
2022-08-10T04:11:23.928Z,95.42
2022-08-10T04:12:23.906Z,95.82
2022-08-10T04:13:23.890Z,95.27
2022-08-10T04:14:38.513Z,95.62
2022-08-10T04:15:24.885Z,95.67
2022-08-10T04:16:23.863Z,95.37
2022-08-10T04:18:03.908Z,95.31
2022-08-10T04:18:24.853Z,95.37
2022-08-10T04:19:23.838Z,95.57
2022-08-10T04:20:23.840Z,94.86
2022-08-10T04:21:23.837Z,95.37
2022-08-10T04:22:23.808Z,95.01
2022-08-10T04:23:23.795Z,95.07
2022-08-10T04:24:24.693Z,94.96
2022-08-10T04:25:24.826Z,95.07
2022-08-10T04:26:24.413Z,95.62
2022-08-10T04:27:23.741Z,95.47
2022-08-10T04:28:23.745Z,94.96
2022-08-10T04:29:23.713Z,95.37
2022-08-10T04:30:23.946Z,94.66
2022-08-10T04:31:23.709Z,94.96
2022-08-10T04:32:23.675Z,94.46
2022-08-10T04:33:23.716Z,94.86
2022-08-10T04:34:23.658Z,95.17
2022-08-10T04:35:23.646Z,94.46
2022-08-10T04:36:23.632Z,94.76
2022-08-10T04:37:23.637Z,94.36
2022-08-10T04:38:23.611Z,94.42
2022-08-10T04:39:23.674Z,94.82
2022-08-10T04:40:28.836Z,94.92
2022-08-10T04:41:24.601Z,94.42
2022-08-10T04:42:23.598Z,94.62
2022-08-10T04:43:23.548Z,94.92
2022-08-10T04:44:23.550Z,93.81
2022-08-10T04:45:23.545Z,94.11
2022-08-10T04:46:42.475Z,93.91
2022-08-10T04:48:00.802Z,93.30
2022-08-10T04:48:43.296Z,93.71
2022-08-10T04:49:55.251Z,93.91
2022-08-10T04:50:24.480Z,94.01
2022-08-10T04:51:23.475Z,94.01
2022-08-10T04:52:25.315Z,94.86
2022-08-10T04:53:23.477Z,94.66
2022-08-10T04:54:23.435Z,94.26
2022-08-10T04:55:24.436Z,94.46
2022-08-10T04:56:32.038Z,94.96
2022-08-10T04:57:24.405Z,94.86
2022-08-10T04:58:23.408Z,95.17
2022-08-10T04:59:23.408Z,95.37
2022-08-10T05:00:25.933Z,95.17
2022-08-10T05:01:24.995Z,95.37
2022-08-10T05:02:31.186Z,95.37
2022-08-10T05:03:24.915Z,95.07
2022-08-10T05:04:34.658Z,95.37
2022-08-10T05:05:24.314Z,95.57
2022-08-10T05:06:23.932Z,95.47
2022-08-10T05:07:23.387Z,95.57
2022-08-10T05:08:23.924Z,95.31
2022-08-10T05:09:23.456Z,95.42
2022-08-10T05:10:23.929Z,95.78
2022-08-10T05:11:24.310Z,94.76
2022-08-10T05:12:23.966Z,95.07
2022-08-10T05:13:23.933Z,95.37
2022-08-10T05:14:23.451Z,95.07
2022-08-10T05:15:23.206Z,94.56
2022-08-10T05:16:32.041Z,94.76
2022-08-10T05:17:24.937Z,95.12
2022-08-10T05:18:23.944Z,94.82
2022-08-10T05:20:03.684Z,93.91
2022-08-10T05:20:24.181Z,93.81
2022-08-10T05:21:52.114Z,93.71
2022-08-10T05:22:24.931Z,93.71
2022-08-10T05:23:23.124Z,93.51
2022-08-10T05:24:23.119Z,93.51
2022-08-10T05:25:23.093Z,93.81
2022-08-10T05:26:23.102Z,93.36
2022-08-10T05:27:23.968Z,93.16
2022-08-10T05:28:23.633Z,92.76
2022-08-10T05:29:23.071Z,92.76
2022-08-10T05:30:23.073Z,92.65
2022-08-10T05:31:24.208Z,92.96
2022-08-10T05:32:23.024Z,92.76
2022-08-10T05:33:23.035Z,92.45
2022-08-10T05:34:23.007Z,92.25
2022-08-10T05:35:23.030Z,92.71
2022-08-10T05:36:23.004Z,92.30
2022-08-10T05:38:10.819Z,92.00
2022-08-10T05:38:23.977Z,91.70
2022-08-10T05:39:28.801Z,91.70
2022-08-10T05:40:23.937Z,91.46
2022-08-10T05:41:22.931Z,91.55
2022-08-10T05:42:22.963Z,90.95
2022-08-10T05:43:22.895Z,90.50
2022-08-10T05:44:22.898Z,90.41
2022-08-10T05:45:22.874Z,91.01
2022-08-10T05:46:22.879Z,91.01
2022-08-10T05:47:22.881Z,89.70
2022-08-10T05:48:55.715Z,90.41
2022-08-10T05:49:23.854Z,90.50
2022-08-10T05:50:22.827Z,90.30
2022-08-10T05:51:22.826Z,89.25
2022-08-10T05:52:22.785Z,89.29
2022-08-10T05:54:02.377Z,88.85
2022-08-10T05:54:23.785Z,89.15
2022-08-10T05:55:22.767Z,89.15
2022-08-10T05:56:23.437Z,88.85
2022-08-10T05:57:22.745Z,87.63
2022-08-10T05:58:22.799Z,87.34
2022-08-10T06:00:31.005Z,87.94
2022-08-10T06:00:37.481Z,87.80
2022-08-10T06:01:23.729Z,87.29
2022-08-10T06:02:31.873Z,87.09
2022-08-10T06:03:23.884Z,87.63
2022-08-10T06:04:22.663Z,87.03
2022-08-10T06:05:22.653Z,86.58
2022-08-10T06:06:25.007Z,86.58
2022-08-10T06:07:22.656Z,87.03
2022-08-10T06:08:22.628Z,86.99
2022-08-10T06:09:22.612Z,86.99
2022-08-10T06:10:32.621Z,87.09
2022-08-10T06:12:28.114Z,86.95
2022-08-10T06:12:29.088Z,86.75
2022-08-10T06:13:29.653Z,87.15
2022-08-10T06:14:28.377Z,86.85
2022-08-10T06:15:51.653Z,86.44
2022-08-10T06:16:23.568Z,86.75
2022-08-10T06:17:22.521Z,86.04
2022-08-10T06:18:22.520Z,85.74
2022-08-10T06:19:22.508Z,85.40
2022-08-10T06:20:22.497Z,85.03
2022-08-10T06:21:22.503Z,84.89
2022-08-10T06:22:22.477Z,85.30
2022-08-10T06:23:22.461Z,85.90
2022-08-10T06:24:22.456Z,85.40
2022-08-10T06:26:09.083Z,85.30
2022-08-10T06:26:23.448Z,85.30
2022-08-10T06:27:34.427Z,84.15
2022-08-10T06:28:23.404Z,84.89
2022-08-10T06:29:22.394Z,84.85
2022-08-10T06:30:22.392Z,84.55
2022-08-10T06:31:22.472Z,84.65
2022-08-10T06:32:22.360Z,83.65
2022-08-10T06:33:22.347Z,83.40
2022-08-10T06:34:22.339Z,82.90
2022-08-10T06:35:24.941Z,82.60
2022-08-10T06:36:22.313Z,82.60
2022-08-10T06:37:22.341Z,82.26
2022-08-10T06:38:22.952Z,81.65
2022-08-10T06:39:33.530Z,81.35
2022-08-10T06:40:23.304Z,81.46
2022-08-10T06:41:23.314Z,80.65
2022-08-10T06:42:23.271Z,80.95
2022-08-10T06:43:22.538Z,80.75
2022-08-10T06:44:22.233Z,81.01
2022-08-10T06:45:22.222Z,81.21
2022-08-10T06:46:22.931Z,80.71
2022-08-10T06:47:22.837Z,81.21
2022-08-10T06:48:22.184Z,80.61
2022-08-10T06:49:22.943Z,79.61
2022-08-10T06:50:44.703Z,79.41
2022-08-10T06:51:23.150Z,80.01
2022-08-10T06:52:22.170Z,80.01
2022-08-10T06:53:22.476Z,79.10
2022-08-10T06:54:22.129Z,79.47
2022-08-10T06:55:49.989Z,79.37
2022-08-10T06:56:35.887Z,79.57
2022-08-10T06:57:23.095Z,78.77
2022-08-10T06:58:26.694Z,78.12
2022-08-10T06:59:23.073Z,77.52
2022-08-10T07:00:22.073Z,76.92
2022-08-10T07:01:22.146Z,77.52
2022-08-10T07:02:22.037Z,77.48
2022-08-10T07:03:22.034Z,77.79
2022-08-10T07:04:32.316Z,76.68
2022-08-10T07:05:23.013Z,76.38
2022-08-10T07:06:22.016Z,76.28
2022-08-10T07:07:22.006Z,75.78
2022-08-10T07:08:21.975Z,76.08
2022-08-10T07:09:21.984Z,76.28
2022-08-10T07:10:22.993Z,76.48
2022-08-10T07:11:21.937Z,77.15
2022-08-10T07:12:22.467Z,76.04
2022-08-10T07:14:16.951Z,76.25
2022-08-10T07:14:22.969Z,74.44
2022-08-10T07:15:21.930Z,74.74
2022-08-10T07:16:21.881Z,74.64
2022-08-10T07:17:21.895Z,75.04
2022-08-10T07:18:21.865Z,75.10
2022-08-10T07:19:21.851Z,75.01
2022-08-10T07:20:21.913Z,75.01
2022-08-10T07:21:21.856Z,75.01
2022-08-10T07:23:02.624Z,75.10
2022-08-10T07:23:58.541Z,74.40
2022-08-10T07:24:23.451Z,74.67
2022-08-10T07:25:21.822Z,74.57
2022-08-10T07:26:21.975Z,73.67
2022-08-10T07:27:21.795Z,73.33
2022-08-10T07:28:21.761Z,73.13
2022-08-10T07:29:52.811Z,73.53
2022-08-10T07:30:22.732Z,73.03
2022-08-10T07:31:35.431Z,73.63
2022-08-10T07:32:22.713Z,73.43
2022-08-10T07:33:21.704Z,72.83
2022-08-10T07:34:29.074Z,72.63
2022-08-10T07:35:22.684Z,72.13
2022-08-10T07:36:21.698Z,71.63
2022-08-10T07:37:21.657Z,70.93
2022-08-10T07:38:21.654Z,71.00
2022-08-10T07:40:02.103Z,70.29
2022-08-10T07:40:22.848Z,70.26
2022-08-10T07:41:21.615Z,69.26
2022-08-10T07:42:22.483Z,69.12
2022-08-10T07:43:21.586Z,69.23
2022-08-10T07:44:21.580Z,69.23
2022-08-10T07:45:21.570Z,67.72
2022-08-10T07:46:21.557Z,68.52
2022-08-10T07:47:53.748Z,68.82
2022-08-10T07:48:22.555Z,68.02
2022-08-10T07:49:21.547Z,68.32
2022-08-10T07:50:21.517Z,68.73
2022-08-10T07:51:21.504Z,69.12
2022-08-10T07:52:21.487Z,67.72
2022-08-10T07:53:21.511Z,66.99
2022-08-10T07:54:21.486Z,67.09
2022-08-10T07:56:03.448Z,67.79
2022-08-10T07:56:47.473Z,67.09
2022-08-10T07:57:30.639Z,66.76
2022-08-10T07:58:22.447Z,67.09
2022-08-10T07:59:21.435Z,66.56
2022-08-10T08:00:21.401Z,67.26
2022-08-10T08:01:21.472Z,65.36
2022-08-10T08:02:21.379Z,65.56
2022-08-10T08:03:21.376Z,64.96
2022-08-10T08:04:21.386Z,65.23
2022-08-10T08:05:57.576Z,64.73
2022-08-10T08:06:22.345Z,64.70
2022-08-10T08:07:21.610Z,65.37
2022-08-10T08:08:21.319Z,65.20
2022-08-10T08:09:21.328Z,65.10
2022-08-10T08:10:21.300Z,65.90
2022-08-10T08:11:26.322Z,65.40
2022-08-10T08:12:22.272Z,65.07
2022-08-10T08:13:21.275Z,65.50
2022-08-10T08:14:21.276Z,65.17
2022-08-10T08:16:20.295Z,64.57
2022-08-10T08:16:22.389Z,65.87
2022-08-10T08:17:21.216Z,65.26
2022-08-10T08:18:25.297Z,64.97
2022-08-10T08:19:27.903Z,65.17
2022-08-10T08:20:22.210Z,63.27
2022-08-10T08:24:05.689Z,64.54
2022-08-10T08:24:09.604Z,65.04
2022-08-10T08:24:16.370Z,64.41
2022-08-10T08:24:32.806Z,63.01
2022-08-10T08:25:22.146Z,62.81
2022-08-10T08:26:21.170Z,62.15
2022-08-10T08:27:21.113Z,63.24
2022-08-10T08:28:21.106Z,61.32
2022-08-10T08:29:21.101Z,61.71
2022-08-10T08:30:26.835Z,62.88
2022-08-10T08:31:22.102Z,61.91
2022-08-10T08:32:21.113Z,61.32
2022-08-10T08:33:42.568Z,61.99
2022-08-10T08:34:22.080Z,61.69
2022-08-10T08:35:21.020Z,62.08
2022-08-10T08:36:21.030Z,60.99
2022-08-10T08:38:29.686Z,60.96
2022-08-10T08:38:31.492Z,60.99
2022-08-10T08:39:22.046Z,61.46
2022-08-10T08:40:20.981Z,60.66
2022-08-10T08:41:20.955Z,59.56
2022-08-10T08:42:20.949Z,59.14
2022-08-10T08:43:21.475Z,58.74
2022-08-10T08:44:20.923Z,59.04
2022-08-10T08:45:20.918Z,58.94
2022-08-10T08:46:20.914Z,59.04
2022-08-10T08:48:02.286Z,59.44
2022-08-10T08:48:21.906Z,57.54
2022-08-10T08:50:05.059Z,57.92
2022-08-10T08:50:21.858Z,59.91
2022-08-10T08:52:09.463Z,56.72
2022-08-10T08:52:21.844Z,57.92
2022-08-10T08:53:22.328Z,56.92
2022-08-10T08:54:20.831Z,55.93
2022-08-10T08:56:03.453Z,57.09
2022-08-10T08:56:21.796Z,58.09
2022-08-10T08:57:49.140Z,57.42
2022-08-10T08:58:21.791Z,57.52
2022-08-10T08:59:20.785Z,57.62
2022-08-10T09:00:20.754Z,57.62
2022-08-10T09:01:20.814Z,57.99
2022-08-10T09:02:20.735Z,57.52
2022-08-10T09:03:23.929Z,56.82
2022-08-10T09:04:21.852Z,56.42
2022-08-10T09:05:20.695Z,57.82
2022-08-10T09:06:20.687Z,56.89
2022-08-10T09:07:56.260Z,55.40
2022-08-10T09:08:21.659Z,55.20
2022-08-10T09:09:20.674Z,55.27
2022-08-10T09:10:20.645Z,56.37
2022-08-10T09:11:20.628Z,55.47
2022-08-10T09:12:20.633Z,55.38
2022-08-10T09:13:20.640Z,55.80
2022-08-10T09:14:25.421Z,55.50
2022-08-10T09:15:40.743Z,56.07
2022-08-10T09:16:21.579Z,54.41
2022-08-10T09:17:20.563Z,54.68
2022-08-10T09:18:20.598Z,55.27
2022-08-10T09:19:36.343Z,55.38
2022-08-10T09:20:21.537Z,55.67
2022-08-10T09:21:20.532Z,56.07
2022-08-10T09:22:20.541Z,55.38
2022-08-10T09:23:20.512Z,55.15
2022-08-10T09:24:20.562Z,55.35
2022-08-10T09:25:20.482Z,54.23
2022-08-10T09:26:20.480Z,52.84
2022-08-10T09:27:20.494Z,51.32
2022-08-10T09:28:20.473Z,52.19
2022-08-10T09:29:21.439Z,53.19
2022-08-10T09:30:20.433Z,51.70
2022-08-10T09:31:23.153Z,52.49
2022-08-10T09:36:16.505Z,52.69
2022-08-10T09:36:22.105Z,52.79
2022-08-10T09:36:24.972Z,51.50
2022-08-10T09:36:29.312Z,52.39
2022-08-10T09:36:32.115Z,51.40
2022-08-10T09:37:21.359Z,50.31
2022-08-10T09:38:20.342Z,50.81
2022-08-10T09:40:12.632Z,50.48
2022-08-10T09:41:00.229Z,51.37
2022-08-10T09:41:21.365Z,48.90
2022-08-10T09:42:20.972Z,49.88
2022-08-10T09:43:25.430Z,52.26
2022-08-10T09:44:21.272Z,50.78
2022-08-10T09:45:20.969Z,50.48
2022-08-10T09:46:20.272Z,49.66
2022-08-10T09:47:20.978Z,50.85
2022-08-10T09:48:21.254Z,50.56
2022-08-10T09:49:22.414Z,50.16
2022-08-10T09:50:21.210Z,49.66
2022-08-10T09:51:44.227Z,49.64
2022-08-10T09:52:21.217Z,49.54
2022-08-10T09:53:20.174Z,50.04
2022-08-10T09:54:20.188Z,51.03
2022-08-10T09:55:20.973Z,49.34
2022-08-10T09:56:22.318Z,49.74
2022-08-10T09:57:44.815Z,49.64
2022-08-10T09:58:21.115Z,50.21
2022-08-10T09:59:26.642Z,49.71
2022-08-10T10:00:21.105Z,49.32
2022-08-10T10:01:56.333Z,49.81
2022-08-10T10:02:21.105Z,49.71
2022-08-10T10:03:25.861Z,48.82
2022-08-10T10:04:21.066Z,48.33
2022-08-10T10:05:20.045Z,48.63
2022-08-10T10:06:20.043Z,48.60
2022-08-10T10:07:20.045Z,48.30
2022-08-10T10:08:20.049Z,49.10
2022-08-10T10:09:20.016Z,48.70
2022-08-10T10:10:21.051Z,48.50
2022-08-10T10:11:19.983Z,49.77
2022-08-10T10:12:20.045Z,49.66
2022-08-10T10:13:20.010Z,48.48
2022-08-10T10:14:20.953Z,47.78
2022-08-10T10:15:24.391Z,47.52
2022-08-10T10:16:20.935Z,47.31
2022-08-10T10:17:19.919Z,48.01
2022-08-10T10:18:20.488Z,47.59
2022-08-10T10:19:20.006Z,49.47
2022-08-10T10:20:19.886Z,48.38
2022-08-10T10:21:24.136Z,48.06
2022-08-10T10:22:20.864Z,47.86
2022-08-10T10:23:19.870Z,47.66
2022-08-10T10:24:22.812Z,46.48
2022-08-10T10:25:21.259Z,46.48
2022-08-10T10:26:20.498Z,46.58
2022-08-10T10:27:19.821Z,45.98
2022-08-10T10:28:19.803Z,46.28
2022-08-10T10:29:55.891Z,46.28
2022-08-10T10:30:20.772Z,47.27
2022-08-10T10:31:22.496Z,47.77
2022-08-10T10:32:22.481Z,47.25
2022-08-10T10:33:19.804Z,46.75
2022-08-10T10:34:19.759Z,47.62
2022-08-10T10:35:20.492Z,45.57
2022-08-10T10:36:19.718Z,48.90
2022-08-10T10:37:19.708Z,45.45
2022-08-10T10:38:19.701Z,45.94
2022-08-10T10:39:23.944Z,47.81
2022-08-10T10:40:19.695Z,48.80
2022-08-10T10:41:19.679Z,47.20
2022-08-10T10:42:42.160Z,48.19
2022-08-10T10:43:20.642Z,46.39
2022-08-10T10:44:19.626Z,44.42
2022-08-10T10:45:19.657Z,44.73
2022-08-10T10:46:23.022Z,45.35
2022-08-10T10:47:19.598Z,46.23
2022-08-10T10:48:24.109Z,44.95
2022-08-10T10:49:21.490Z,47.13
2022-08-10T10:50:19.563Z,47.50
2022-08-10T10:51:19.576Z,45.42
2022-08-10T10:52:22.496Z,45.01
2022-08-10T10:53:19.542Z,44.43
2022-08-10T10:54:19.536Z,44.95
2022-08-10T10:55:19.539Z,44.75
2022-08-10T10:56:19.523Z,45.62
2022-08-10T10:57:19.528Z,43.77
2022-08-10T10:58:21.167Z,45.05
2022-08-10T10:59:56.043Z,45.74
2022-08-10T11:00:20.460Z,44.85
2022-08-10T11:01:19.518Z,46.41
2022-08-10T11:02:19.455Z,44.43
2022-08-10T11:03:19.454Z,44.32
2022-08-10T11:04:19.421Z,43.92
2022-08-10T11:05:22.035Z,42.36
2022-08-10T11:06:19.401Z,43.25
2022-08-10T11:07:21.879Z,42.96
2022-08-10T11:08:19.998Z,45.82
2022-08-10T11:10:01.217Z,44.04
2022-08-10T11:10:32.836Z,44.83
2022-08-10T11:12:00.373Z,44.93
2022-08-10T11:12:22.348Z,46.19
2022-08-10T11:14:25.178Z,46.09
2022-08-10T11:14:26.463Z,44.98
2022-08-10T11:15:20.300Z,43.51
2022-08-10T11:16:19.291Z,44.89
2022-08-10T11:17:19.272Z,44.57
2022-08-10T11:18:19.314Z,44.27
2022-08-10T11:19:19.252Z,43.27
2022-08-10T11:20:19.273Z,43.37
2022-08-10T11:21:19.258Z,45.53
2022-08-10T11:22:19.256Z,43.05
2022-08-10T11:23:19.213Z,42.65
2022-08-10T11:24:47.376Z,43.56
2022-08-10T11:25:20.193Z,43.64
2022-08-10T11:26:19.202Z,42.16
2022-08-10T11:27:22.337Z,41.20
2022-08-10T11:28:19.212Z,41.81
2022-08-10T11:29:19.146Z,42.50
2022-08-10T11:30:19.200Z,42.40
2022-08-10T11:31:19.159Z,42.50
2022-08-10T11:32:20.745Z,42.00
2022-08-10T11:33:30.960Z,43.66
2022-08-10T11:34:48.316Z,42.08
2022-08-10T11:35:20.118Z,42.47
2022-08-10T11:36:19.069Z,42.55
2022-08-10T11:37:19.061Z,43.42
2022-08-10T11:38:32.072Z,42.26
2022-08-10T11:39:20.114Z,41.57
2022-08-10T11:40:19.056Z,41.99
2022-08-10T11:42:10.323Z,41.99
2022-08-10T11:42:31.456Z,44.65
2022-08-10T11:43:21.137Z,43.17
2022-08-10T11:44:25.510Z,42.18
2022-08-10T11:45:18.985Z,42.28
2022-08-10T11:46:28.058Z,41.49
2022-08-10T11:47:19.991Z,41.30
2022-08-10T11:48:53.558Z,41.89
2022-08-10T11:49:20.449Z,43.66
2022-08-10T11:50:18.923Z,42.65
2022-08-10T11:51:18.913Z,45.09
2022-08-10T11:52:18.908Z,42.91
2022-08-10T11:53:18.939Z,42.12
2022-08-10T11:54:18.927Z,42.12
2022-08-10T11:55:18.893Z,43.40
2022-08-10T11:56:18.865Z,43.79
2022-08-10T11:57:18.878Z,42.24
2022-08-10T11:58:18.845Z,43.32
2022-08-10T11:59:18.823Z,42.44
2022-08-10T12:00:18.829Z,43.82
2022-08-10T12:01:18.825Z,43.89
2022-08-10T12:02:18.867Z,41.41
2022-08-10T12:03:18.783Z,42.22
2022-08-10T12:04:18.790Z,44.98
2022-08-10T12:05:18.767Z,43.20
2022-08-10T12:06:33.773Z,43.40
2022-08-10T12:10:02.910Z,42.10
2022-08-10T12:10:07.520Z,44.07
2022-08-10T12:10:11.244Z,42.49
2022-08-10T12:10:19.746Z,42.20
2022-08-10T12:11:23.754Z,41.71
2022-08-10T12:12:19.695Z,41.61
2022-08-10T12:13:18.690Z,41.65
2022-08-10T12:14:21.779Z,43.42
2022-08-10T12:15:18.691Z,42.91
2022-08-10T12:16:18.666Z,43.50
2022-08-10T12:17:18.641Z,42.30
2022-08-10T12:18:18.627Z,43.75
2022-08-10T12:19:18.623Z,42.28
2022-08-10T12:20:18.605Z,41.27
2022-08-10T12:21:21.585Z,41.00
2022-08-10T12:22:18.601Z,43.85
2022-08-10T12:23:18.587Z,41.56
2022-08-10T12:24:18.573Z,42.55
2022-08-10T12:25:56.274Z,40.11
2022-08-10T12:26:19.558Z,42.32
2022-08-10T12:27:18.549Z,41.35
2022-08-10T12:28:18.527Z,42.95
2022-08-10T12:29:21.390Z,41.17
2022-08-10T12:30:19.505Z,42.95
2022-08-10T12:31:18.527Z,41.47
2022-08-10T12:32:18.512Z,43.52
2022-08-10T12:33:19.474Z,42.71
2022-08-10T12:34:18.482Z,42.20
2022-08-10T12:35:22.778Z,39.74
2022-08-10T12:36:20.464Z,41.33
2022-08-10T12:37:18.423Z,39.56
2022-08-10T12:38:18.444Z,41.63
2022-08-10T12:39:18.487Z,40.45
2022-08-10T12:40:34.579Z,39.17
2022-08-10T12:41:19.381Z,40.66
2022-08-10T12:42:34.889Z,41.43
2022-08-10T12:44:06.516Z,40.25
2022-08-10T12:44:19.354Z,39.17
2022-08-10T12:45:18.351Z,39.17
2022-08-10T12:46:18.338Z,39.86
2022-08-10T12:47:18.329Z,40.17
2022-08-10T12:48:18.351Z,40.35
2022-08-10T12:49:18.324Z,40.08
2022-08-10T12:50:30.580Z,42.32
2022-08-10T12:51:20.027Z,42.10
2022-08-10T12:52:18.278Z,41.59